sensor_id;sensor_type;location;lat;lon;timestamp;temperature;humidity
63897;DHT22;50063;52.084;5.414;2022-07-06T00:01:59;14.90;99.90
63897;DHT22;50063;52.084;5.414;2022-07-06T00:04:25;14.90;99.90
63897;DHT22;50063;52.084;5.414;2022-07-06T00:06:52;14.90;99.90
63897;DHT22;50063;52.084;5.414;2022-07-06T00:09:19;14.90;99.90
63897;DHT22;50063;52.084;5.414;2022-07-06T00:11:45;14.80;99.90
63897;DHT22;50063;52.084;5.414;2022-07-06T00:14:12;14.80;99.90
63897;DHT22;50063;52.084;5.414;2022-07-06T00:16:39;14.90;99.90
63897;DHT22;50063;52.084;5.414;2022-07-06T00:19:05;14.80;99.90
63897;DHT22;50063;52.084;5.414;2022-07-06T00:21:32;14.70;99.90
63897;DHT22;50063;52.084;5.414;2022-07-06T00:23:59;14.50;99.90
63897;DHT22;50063;52.084;5.414;2022-07-06T00:26:26;14.40;99.90
63897;DHT22;50063;52.084;5.414;2022-07-06T00:28:52;14.60;99.90
63897;DHT22;50063;52.084;5.414;2022-07-06T00:31:19;14.60;99.90
63897;DHT22;50063;52.084;5.414;2022-07-06T00:33:46;14.50;99.90
63897;DHT22;50063;52.084;5.414;2022-07-06T00:36:12;14.50;99.90
63897;DHT22;50063;52.084;5.414;2022-07-06T00:38:39;14.50;99.90
63897;DHT22;50063;52.084;5.414;2022-07-06T00:41:06;14.50;99.90
63897;DHT22;50063;52.084;5.414;2022-07-06T00:46:18;14.40;99.90
63897;DHT22;50063;52.084;5.414;2022-07-06T00:48:45;14.40;99.90
63897;DHT22;50063;52.084;5.414;2022-07-06T00:51:12;14.30;99.90
63897;DHT22;50063;52.084;5.414;2022-07-06T00:53:38;14.30;99.90
63897;DHT22;50063;52.084;5.414;2022-07-06T00:56:06;14.20;99.90
63897;DHT22;50063;52.084;5.414;2022-07-06T00:58:33;14.20;99.90
63897;DHT22;50063;52.084;5.414;2022-07-06T01:00:59;14.30;99.90
63897;DHT22;50063;52.084;5.414;2022-07-06T01:03:26;14.20;99.90
63897;DHT22;50063;52.084;5.414;2022-07-06T01:05:53;14.20;99.90
63897;DHT22;50063;52.084;5.414;2022-07-06T01:08:19;14.20;99.90
63897;DHT22;50063;52.084;5.414;2022-07-06T01:10:47;14.20;99.90
63897;DHT22;50063;52.084;5.414;2022-07-06T01:13:14;14.20;99.90
63897;DHT22;50063;52.084;5.414;2022-07-06T01:15:40;14.10;99.90
63897;DHT22;50063;52.084;5.414;2022-07-06T01:18:08;14.10;99.90
63897;DHT22;50063;52.084;5.414;2022-07-06T01:20:35;14.10;99.90
63897;DHT22;50063;52.084;5.414;2022-07-06T01:23:02;14.10;99.90
63897;DHT22;50063;52.084;5.414;2022-07-06T01:25:29;14.10;99.90
63897;DHT22;50063;52.084;5.414;2022-07-06T01:27:55;14.10;99.90
63897;DHT22;50063;52.084;5.414;2022-07-06T01:30:22;14.10;99.90
63897;DHT22;50063;52.084;5.414;2022-07-06T01:32:48;14.10;99.90
63897;DHT22;50063;52.084;5.414;2022-07-06T01:35:16;14.00;99.90
63897;DHT22;50063;52.084;5.414;2022-07-06T01:37:43;13.90;99.90
63897;DHT22;50063;52.084;5.414;2022-07-06T01:40:10;13.90;99.90
63897;DHT22;50063;52.084;5.414;2022-07-06T01:42:37;14.00;99.90
63897;DHT22;50063;52.084;5.414;2022-07-06T01:45:04;14.00;99.90
63897;DHT22;50063;52.084;5.414;2022-07-06T01:47:31;14.00;99.90
63897;DHT22;50063;52.084;5.414;2022-07-06T01:49:59;13.80;99.90
63897;DHT22;50063;52.084;5.414;2022-07-06T01:52:26;13.80;99.90
63897;DHT22;50063;52.084;5.414;2022-07-06T01:54:54;13.80;99.90
63897;DHT22;50063;52.084;5.414;2022-07-06T01:57:21;13.90;99.90
63897;DHT22;50063;52.084;5.414;2022-07-06T01:59:47;13.90;99.90
63897;DHT22;50063;52.084;5.414;2022-07-06T02:02:14;14.00;99.90
63897;DHT22;50063;52.084;5.414;2022-07-06T02:04:41;13.80;99.90
63897;DHT22;50063;52.084;5.414;2022-07-06T02:07:08;13.80;99.90
63897;DHT22;50063;52.084;5.414;2022-07-06T02:09:34;13.80;99.90
63897;DHT22;50063;52.084;5.414;2022-07-06T02:12:01;13.80;99.90
63897;DHT22;50063;52.084;5.414;2022-07-06T02:14:27;13.90;99.90
63897;DHT22;50063;52.084;5.414;2022-07-06T02:16:54;13.80;99.90
63897;DHT22;50063;52.084;5.414;2022-07-06T02:19:21;13.70;99.90
63897;DHT22;50063;52.084;5.414;2022-07-06T02:21:47;13.80;99.90
63897;DHT22;50063;52.084;5.414;2022-07-06T02:24:14;13.80;99.90
63897;DHT22;50063;52.084;5.414;2022-07-06T02:26:40;13.90;99.90
63897;DHT22;50063;52.084;5.414;2022-07-06T02:29:07;13.90;99.90
63897;DHT22;50063;52.084;5.414;2022-07-06T02:31:34;14.00;99.90
63897;DHT22;50063;52.084;5.414;2022-07-06T02:34:00;14.00;99.90
63897;DHT22;50063;52.084;5.414;2022-07-06T02:36:27;14.00;99.90
63897;DHT22;50063;52.084;5.414;2022-07-06T02:38:53;14.10;99.90
63897;DHT22;50063;52.084;5.414;2022-07-06T02:41:20;14.10;99.90
63897;DHT22;50063;52.084;5.414;2022-07-06T02:43:46;14.10;99.90
63897;DHT22;50063;52.084;5.414;2022-07-06T02:46:13;14.20;99.90
63897;DHT22;50063;52.084;5.414;2022-07-06T02:48:40;14.20;99.90
63897;DHT22;50063;52.084;5.414;2022-07-06T02:51:06;14.20;99.90
63897;DHT22;50063;52.084;5.414;2022-07-06T02:53:33;14.20;99.90
63897;DHT22;50063;52.084;5.414;2022-07-06T02:55:59;14.30;99.90
63897;DHT22;50063;52.084;5.414;2022-07-06T02:58:26;14.30;99.90
63897;DHT22;50063;52.084;5.414;2022-07-06T03:00:52;14.20;99.90
63897;DHT22;50063;52.084;5.414;2022-07-06T03:03:19;14.30;99.90
63897;DHT22;50063;52.084;5.414;2022-07-06T03:05:46;14.30;99.90
63897;DHT22;50063;52.084;5.414;2022-07-06T03:08:14;14.40;99.90
63897;DHT22;50063;52.084;5.414;2022-07-06T03:10:41;14.40;99.90
63897;DHT22;50063;52.084;5.414;2022-07-06T03:13:08;14.50;99.90
63897;DHT22;50063;52.084;5.414;2022-07-06T03:15:35;14.50;99.90
63897;DHT22;50063;52.084;5.414;2022-07-06T03:18:01;14.40;99.90
63897;DHT22;50063;52.084;5.414;2022-07-06T03:20:28;14.50;99.90
63897;DHT22;50063;52.084;5.414;2022-07-06T03:22:55;14.50;99.90
63897;DHT22;50063;52.084;5.414;2022-07-06T03:25:21;14.50;99.90
63897;DHT22;50063;52.084;5.414;2022-07-06T03:27:48;14.60;99.90
63897;DHT22;50063;52.084;5.414;2022-07-06T03:30:14;14.70;99.90
63897;DHT22;50063;52.084;5.414;2022-07-06T03:32:41;14.70;99.90
63897;DHT22;50063;52.084;5.414;2022-07-06T03:35:08;14.80;99.90
63897;DHT22;50063;52.084;5.414;2022-07-06T03:37:34;14.90;99.90
63897;DHT22;50063;52.084;5.414;2022-07-06T03:40:01;15.00;99.90
63897;DHT22;50063;52.084;5.414;2022-07-06T03:42:27;15.00;99.90
63897;DHT22;50063;52.084;5.414;2022-07-06T03:44:54;15.00;99.90
63897;DHT22;50063;52.084;5.414;2022-07-06T03:47:21;15.10;99.90
63897;DHT22;50063;52.084;5.414;2022-07-06T03:49:47;15.10;99.90
63897;DHT22;50063;52.084;5.414;2022-07-06T03:52:14;15.10;99.90
63897;DHT22;50063;52.084;5.414;2022-07-06T03:54:40;15.10;99.90
63897;DHT22;50063;52.084;5.414;2022-07-06T03:57:07;15.10;99.90
63897;DHT22;50063;52.084;5.414;2022-07-06T03:59:33;15.00;99.90
63897;DHT22;50063;52.084;5.414;2022-07-06T04:02:00;15.20;99.90
63897;DHT22;50063;52.084;5.414;2022-07-06T04:04:27;15.20;99.90
63897;DHT22;50063;52.084;5.414;2022-07-06T04:06:53;15.30;99.90
63897;DHT22;50063;52.084;5.414;2022-07-06T04:09:20;15.30;99.90
63897;DHT22;50063;52.084;5.414;2022-07-06T04:11:47;15.30;99.90
63897;DHT22;50063;52.084;5.414;2022-07-06T04:14:13;15.20;99.90
63897;DHT22;50063;52.084;5.414;2022-07-06T04:16:40;15.30;99.90
63897;DHT22;50063;52.084;5.414;2022-07-06T04:19:06;15.20;99.90
63897;DHT22;50063;52.084;5.414;2022-07-06T04:21:33;15.30;99.90
63897;DHT22;50063;52.084;5.414;2022-07-06T04:24:00;15.30;99.90
63897;DHT22;50063;52.084;5.414;2022-07-06T04:26:26;15.30;99.90
63897;DHT22;50063;52.084;5.414;2022-07-06T04:28:53;15.30;99.90
63897;DHT22;50063;52.084;5.414;2022-07-06T04:31:19;15.20;99.90
63897;DHT22;50063;52.084;5.414;2022-07-06T04:33:46;15.30;99.90
63897;DHT22;50063;52.084;5.414;2022-07-06T04:36:13;15.20;99.90
63897;DHT22;50063;52.084;5.414;2022-07-06T04:38:39;15.20;99.90
63897;DHT22;50063;52.084;5.414;2022-07-06T04:41:06;15.20;99.90
63897;DHT22;50063;52.084;5.414;2022-07-06T04:43:32;15.10;99.90
63897;DHT22;50063;52.084;5.414;2022-07-06T04:45:59;15.20;99.90
63897;DHT22;50063;52.084;5.414;2022-07-06T04:48:27;15.30;99.90
63897;DHT22;50063;52.084;5.414;2022-07-06T04:50:54;15.30;99.90
63897;DHT22;50063;52.084;5.414;2022-07-06T04:53:20;15.30;99.90
63897;DHT22;50063;52.084;5.414;2022-07-06T04:55:47;15.20;99.90
63897;DHT22;50063;52.084;5.414;2022-07-06T04:58:13;15.20;99.90
63897;DHT22;50063;52.084;5.414;2022-07-06T05:00:40;15.10;99.90
63897;DHT22;50063;52.084;5.414;2022-07-06T05:03:07;15.20;99.90
63897;DHT22;50063;52.084;5.414;2022-07-06T05:05:34;15.30;99.90
63897;DHT22;50063;52.084;5.414;2022-07-06T05:08:00;15.50;99.90
63897;DHT22;50063;52.084;5.414;2022-07-06T05:10:27;15.50;99.90
63897;DHT22;50063;52.084;5.414;2022-07-06T05:12:54;15.60;99.90
63897;DHT22;50063;52.084;5.414;2022-07-06T05:15:22;15.50;99.90
63897;DHT22;50063;52.084;5.414;2022-07-06T05:17:49;15.40;99.90
63897;DHT22;50063;52.084;5.414;2022-07-06T05:20:15;15.50;99.90
63897;DHT22;50063;52.084;5.414;2022-07-06T05:22:42;15.40;99.90
63897;DHT22;50063;52.084;5.414;2022-07-06T05:25:12;15.50;99.90
63897;DHT22;50063;52.084;5.414;2022-07-06T05:27:38;15.50;99.90
63897;DHT22;50063;52.084;5.414;2022-07-06T05:30:06;15.70;99.90
63897;DHT22;50063;52.084;5.414;2022-07-06T05:32:33;15.80;99.90
63897;DHT22;50063;52.084;5.414;2022-07-06T05:34:59;15.90;99.90
63897;DHT22;50063;52.084;5.414;2022-07-06T05:37:46;16.00;99.90
63897;DHT22;50063;52.084;5.414;2022-07-06T05:40:13;15.90;99.90
63897;DHT22;50063;52.084;5.414;2022-07-06T05:42:39;16.00;99.90
63897;DHT22;50063;52.084;5.414;2022-07-06T05:45:06;16.00;99.90
63897;DHT22;50063;52.084;5.414;2022-07-06T05:47:33;16.00;99.90
63897;DHT22;50063;52.084;5.414;2022-07-06T05:50:18;16.10;99.90
63897;DHT22;50063;52.084;5.414;2022-07-06T05:52:47;16.20;99.90
63897;DHT22;50063;52.084;5.414;2022-07-06T05:55:20;16.20;99.90
63897;DHT22;50063;52.084;5.414;2022-07-06T05:57:47;16.20;99.90
63897;DHT22;50063;52.084;5.414;2022-07-06T06:00:14;16.20;99.90
63897;DHT22;50063;52.084;5.414;2022-07-06T06:02:41;16.20;99.90
63897;DHT22;50063;52.084;5.414;2022-07-06T06:05:09;16.30;99.90
63897;DHT22;50063;52.084;5.414;2022-07-06T06:07:36;16.30;99.90
63897;DHT22;50063;52.084;5.414;2022-07-06T06:10:03;16.30;99.90
63897;DHT22;50063;52.084;5.414;2022-07-06T06:12:30;16.40;99.90
63897;DHT22;50063;52.084;5.414;2022-07-06T06:14:57;16.40;99.90
63897;DHT22;50063;52.084;5.414;2022-07-06T06:17:24;16.50;99.90
63897;DHT22;50063;52.084;5.414;2022-07-06T06:19:50;16.50;99.90
63897;DHT22;50063;52.084;5.414;2022-07-06T06:22:17;16.60;99.90
63897;DHT22;50063;52.084;5.414;2022-07-06T06:24:43;16.60;99.90
63897;DHT22;50063;52.084;5.414;2022-07-06T06:27:10;16.60;99.90
63897;DHT22;50063;52.084;5.414;2022-07-06T06:29:37;16.50;99.90
63897;DHT22;50063;52.084;5.414;2022-07-06T06:32:04;16.50;99.90
63897;DHT22;50063;52.084;5.414;2022-07-06T06:34:31;16.60;99.90
63897;DHT22;50063;52.084;5.414;2022-07-06T06:36:58;16.60;99.90
63897;DHT22;50063;52.084;5.414;2022-07-06T06:39:25;16.60;99.90
63897;DHT22;50063;52.084;5.414;2022-07-06T06:41:51;16.60;99.90
63897;DHT22;50063;52.084;5.414;2022-07-06T06:44:18;16.70;99.90
63897;DHT22;50063;52.084;5.414;2022-07-06T06:46:44;16.70;99.90
63897;DHT22;50063;52.084;5.414;2022-07-06T06:49:11;16.80;99.90
63897;DHT22;50063;52.084;5.414;2022-07-06T06:51:38;16.70;99.90
63897;DHT22;50063;52.084;5.414;2022-07-06T06:54:06;16.60;99.90
63897;DHT22;50063;52.084;5.414;2022-07-06T06:56:32;16.80;99.90
63897;DHT22;50063;52.084;5.414;2022-07-06T06:58:59;16.80;99.90
63897;DHT22;50063;52.084;5.414;2022-07-06T07:01:43;16.90;99.90
63897;DHT22;50063;52.084;5.414;2022-07-06T07:04:10;16.80;99.90
63897;DHT22;50063;52.084;5.414;2022-07-06T07:06:37;16.90;99.90
63897;DHT22;50063;52.084;5.414;2022-07-06T07:09:04;16.90;99.90
63897;DHT22;50063;52.084;5.414;2022-07-06T07:11:31;17.00;99.90
63897;DHT22;50063;52.084;5.414;2022-07-06T07:13:57;17.10;99.90
63897;DHT22;50063;52.084;5.414;2022-07-06T07:16:26;17.20;99.90
63897;DHT22;50063;52.084;5.414;2022-07-06T07:18:53;17.30;99.90
63897;DHT22;50063;52.084;5.414;2022-07-06T07:21:19;17.30;99.90
63897;DHT22;50063;52.084;5.414;2022-07-06T07:23:46;17.30;99.90
63897;DHT22;50063;52.084;5.414;2022-07-06T07:26:12;17.40;99.90
63897;DHT22;50063;52.084;5.414;2022-07-06T07:28:39;17.50;99.90
63897;DHT22;50063;52.084;5.414;2022-07-06T07:31:05;17.60;99.90
63897;DHT22;50063;52.084;5.414;2022-07-06T07:33:32;17.70;99.90
63897;DHT22;50063;52.084;5.414;2022-07-06T07:36:00;17.70;99.90
63897;DHT22;50063;52.084;5.414;2022-07-06T07:38:26;17.70;99.90
63897;DHT22;50063;52.084;5.414;2022-07-06T07:40:54;17.90;99.90
63897;DHT22;50063;52.084;5.414;2022-07-06T07:43:20;17.90;99.90
63897;DHT22;50063;52.084;5.414;2022-07-06T07:45:47;17.70;99.90
63897;DHT22;50063;52.084;5.414;2022-07-06T07:48:14;17.90;99.90
63897;DHT22;50063;52.084;5.414;2022-07-06T07:50:43;17.90;99.90
63897;DHT22;50063;52.084;5.414;2022-07-06T07:53:10;18.20;99.90
63897;DHT22;50063;52.084;5.414;2022-07-06T07:55:37;18.40;99.90
63897;DHT22;50063;52.084;5.414;2022-07-06T07:58:07;18.30;99.90
63897;DHT22;50063;52.084;5.414;2022-07-06T08:00:35;18.40;99.90
63897;DHT22;50063;52.084;5.414;2022-07-06T08:03:01;18.50;99.90
63897;DHT22;50063;52.084;5.414;2022-07-06T08:05:28;18.60;99.90
63897;DHT22;50063;52.084;5.414;2022-07-06T08:07:54;18.60;99.90
63897;DHT22;50063;52.084;5.414;2022-07-06T08:10:21;18.70;99.90
63897;DHT22;50063;52.084;5.414;2022-07-06T08:12:48;18.80;99.90
63897;DHT22;50063;52.084;5.414;2022-07-06T08:15:15;18.80;99.90
63897;DHT22;50063;52.084;5.414;2022-07-06T08:17:41;18.80;99.90
63897;DHT22;50063;52.084;5.414;2022-07-06T08:20:09;18.90;99.90
63897;DHT22;50063;52.084;5.414;2022-07-06T08:22:36;18.80;99.90
63897;DHT22;50063;52.084;5.414;2022-07-06T08:25:03;18.80;99.90
63897;DHT22;50063;52.084;5.414;2022-07-06T08:27:29;18.80;99.90
63897;DHT22;50063;52.084;5.414;2022-07-06T08:29:56;18.70;99.90
63897;DHT22;50063;52.084;5.414;2022-07-06T08:32:23;18.70;99.90
63897;DHT22;50063;52.084;5.414;2022-07-06T08:35:10;18.90;99.90
63897;DHT22;50063;52.084;5.414;2022-07-06T08:37:36;19.00;99.90
63897;DHT22;50063;52.084;5.414;2022-07-06T08:40:03;19.20;99.90
63897;DHT22;50063;52.084;5.414;2022-07-06T08:42:33;19.40;99.90
63897;DHT22;50063;52.084;5.414;2022-07-06T08:45:00;19.60;99.90
63897;DHT22;50063;52.084;5.414;2022-07-06T08:47:27;19.80;99.90
63897;DHT22;50063;52.084;5.414;2022-07-06T08:49:54;20.00;99.90
63897;DHT22;50063;52.084;5.414;2022-07-06T08:52:22;20.20;99.90
63897;DHT22;50063;52.084;5.414;2022-07-06T08:54:49;20.20;99.90
63897;DHT22;50063;52.084;5.414;2022-07-06T08:57:16;20.10;99.90
63897;DHT22;50063;52.084;5.414;2022-07-06T08:59:43;19.70;99.90
63897;DHT22;50063;52.084;5.414;2022-07-06T09:02:10;19.60;99.90
63897;DHT22;50063;52.084;5.414;2022-07-06T09:04:37;19.70;99.90
63897;DHT22;50063;52.084;5.414;2022-07-06T09:07:04;19.70;99.90
63897;DHT22;50063;52.084;5.414;2022-07-06T09:09:31;19.90;99.90
63897;DHT22;50063;52.084;5.414;2022-07-06T09:11:59;20.00;99.90
63897;DHT22;50063;52.084;5.414;2022-07-06T09:14:29;20.00;99.90
63897;DHT22;50063;52.084;5.414;2022-07-06T09:17:03;20.30;99.90
63897;DHT22;50063;52.084;5.414;2022-07-06T09:19:30;20.30;99.90
63897;DHT22;50063;52.084;5.414;2022-07-06T09:21:57;20.60;99.90
63897;DHT22;50063;52.084;5.414;2022-07-06T09:24:23;20.60;99.90
63897;DHT22;50063;52.084;5.414;2022-07-06T09:26:55;20.90;99.90
63897;DHT22;50063;52.084;5.414;2022-07-06T09:29:28;20.70;99.90
63897;DHT22;50063;52.084;5.414;2022-07-06T09:31:59;20.70;99.40
63897;DHT22;50063;52.084;5.414;2022-07-06T09:34:39;20.60;99.90
63897;DHT22;50063;52.084;5.414;2022-07-06T09:37:07;20.80;99.80
63897;DHT22;50063;52.084;5.414;2022-07-06T09:39:34;20.70;98.10
63897;DHT22;50063;52.084;5.414;2022-07-06T09:42:01;20.90;99.70
63897;DHT22;50063;52.084;5.414;2022-07-06T09:44:30;20.80;99.00
63897;DHT22;50063;52.084;5.414;2022-07-06T09:47:02;20.90;99.60
63897;DHT22;50063;52.084;5.414;2022-07-06T09:49:29;21.10;99.90
63897;DHT22;50063;52.084;5.414;2022-07-06T09:51:56;21.20;99.70
63897;DHT22;50063;52.084;5.414;2022-07-06T09:54:23;21.20;99.00
63897;DHT22;50063;52.084;5.414;2022-07-06T09:56:51;21.40;99.90
63897;DHT22;50063;52.084;5.414;2022-07-06T09:59:22;21.30;98.80
63897;DHT22;50063;52.084;5.414;2022-07-06T10:01:50;20.90;99.10
63897;DHT22;50063;52.084;5.414;2022-07-06T10:04:17;21.10;99.90
63897;DHT22;50063;52.084;5.414;2022-07-06T10:06:46;21.30;99.60
63897;DHT22;50063;52.084;5.414;2022-07-06T10:09:14;21.50;99.90
63897;DHT22;50063;52.084;5.414;2022-07-06T10:11:42;21.50;99.00
63897;DHT22;50063;52.084;5.414;2022-07-06T10:14:10;21.40;98.90
63897;DHT22;50063;52.084;5.414;2022-07-06T10:16:38;21.00;98.10
63897;DHT22;50063;52.084;5.414;2022-07-06T10:19:08;21.00;97.90
63897;DHT22;50063;52.084;5.414;2022-07-06T10:21:35;21.00;97.40
63897;DHT22;50063;52.084;5.414;2022-07-06T10:24:03;21.10;98.60
63897;DHT22;50063;52.084;5.414;2022-07-06T10:26:30;21.30;98.40
63897;DHT22;50063;52.084;5.414;2022-07-06T10:28:58;21.40;99.00
63897;DHT22;50063;52.084;5.414;2022-07-06T10:31:26;21.50;98.70
63897;DHT22;50063;52.084;5.414;2022-07-06T10:33:53;21.40;98.20
63897;DHT22;50063;52.084;5.414;2022-07-06T10:36:20;21.50;98.00
63897;DHT22;50063;52.084;5.414;2022-07-06T10:38:48;21.60;98.70
63897;DHT22;50063;52.084;5.414;2022-07-06T10:41:15;21.60;98.00
63897;DHT22;50063;52.084;5.414;2022-07-06T10:43:43;21.50;98.70
63897;DHT22;50063;52.084;5.414;2022-07-06T10:46:11;21.40;98.20
63897;DHT22;50063;52.084;5.414;2022-07-06T10:48:39;21.60;98.10
63897;DHT22;50063;52.084;5.414;2022-07-06T10:51:06;21.40;96.90
63897;DHT22;50063;52.084;5.414;2022-07-06T10:53:33;21.30;97.30
63897;DHT22;50063;52.084;5.414;2022-07-06T10:56:07;21.50;97.90
63897;DHT22;50063;52.084;5.414;2022-07-06T10:58:38;21.60;97.10
63897;DHT22;50063;52.084;5.414;2022-07-06T11:01:07;21.50;97.40
63897;DHT22;50063;52.084;5.414;2022-07-06T11:03:38;21.40;97.40
63897;DHT22;50063;52.084;5.414;2022-07-06T11:11:25;21.20;97.00
63897;DHT22;50063;52.084;5.414;2022-07-06T11:13:56;21.40;97.40
63897;DHT22;50063;52.084;5.414;2022-07-06T11:16:25;21.50;97.80
63897;DHT22;50063;52.084;5.414;2022-07-06T11:19:00;21.50;97.30
63897;DHT22;50063;52.084;5.414;2022-07-06T11:24:22;21.60;97.40
63897;DHT22;50063;52.084;5.414;2022-07-06T11:26:50;21.50;96.80
63897;DHT22;50063;52.084;5.414;2022-07-06T11:29:17;21.50;96.40
63897;DHT22;50063;52.084;5.414;2022-07-06T11:31:45;21.60;96.50
63897;DHT22;50063;52.084;5.414;2022-07-06T11:34:12;21.70;97.00
63897;DHT22;50063;52.084;5.414;2022-07-06T11:36:40;21.80;96.10
63897;DHT22;50063;52.084;5.414;2022-07-06T11:39:12;21.90;95.40
63897;DHT22;50063;52.084;5.414;2022-07-06T11:41:38;22.00;96.90
63897;DHT22;50063;52.084;5.414;2022-07-06T11:44:05;22.20;96.90
63897;DHT22;50063;52.084;5.414;2022-07-06T11:46:34;22.00;95.70
63897;DHT22;50063;52.084;5.414;2022-07-06T11:49:05;22.10;96.60
63897;DHT22;50063;52.084;5.414;2022-07-06T11:51:33;22.20;96.50
63897;DHT22;50063;52.084;5.414;2022-07-06T11:54:01;22.40;96.50
63897;DHT22;50063;52.084;5.414;2022-07-06T11:56:28;22.20;95.30
63897;DHT22;50063;52.084;5.414;2022-07-06T11:58:58;22.10;95.80
63897;DHT22;50063;52.084;5.414;2022-07-06T12:01:26;22.00;94.90
63897;DHT22;50063;52.084;5.414;2022-07-06T12:03:57;22.20;96.30
63897;DHT22;50063;52.084;5.414;2022-07-06T12:06:25;22.20;95.70
63897;DHT22;50063;52.084;5.414;2022-07-06T12:08:55;22.30;96.50
63897;DHT22;50063;52.084;5.414;2022-07-06T12:11:23;22.40;95.70
63897;DHT22;50063;52.084;5.414;2022-07-06T12:13:51;22.50;94.80
63897;DHT22;50063;52.084;5.414;2022-07-06T12:16:18;22.50;94.90
63897;DHT22;50063;52.084;5.414;2022-07-06T12:18:46;22.60;96.50
63897;DHT22;50063;52.084;5.414;2022-07-06T12:21:14;22.50;95.70
63897;DHT22;50063;52.084;5.414;2022-07-06T12:23:44;22.80;96.10
63897;DHT22;50063;52.084;5.414;2022-07-06T12:26:11;22.90;95.80
63897;DHT22;50063;52.084;5.414;2022-07-06T12:28:38;23.10;95.90
63897;DHT22;50063;52.084;5.414;2022-07-06T12:31:04;23.10;95.80
63897;DHT22;50063;52.084;5.414;2022-07-06T12:33:31;23.20;95.70
63897;DHT22;50063;52.084;5.414;2022-07-06T12:36:08;23.40;95.30
63897;DHT22;50063;52.084;5.414;2022-07-06T12:38:35;23.60;94.70
63897;DHT22;50063;52.084;5.414;2022-07-06T12:41:02;23.80;94.10
63897;DHT22;50063;52.084;5.414;2022-07-06T12:43:38;23.70;94.00
63897;DHT22;50063;52.084;5.414;2022-07-06T12:48:51;24.00;94.40
63897;DHT22;50063;52.084;5.414;2022-07-06T12:51:18;23.90;92.50
63897;DHT22;50063;52.084;5.414;2022-07-06T12:53:45;24.10;93.30
63897;DHT22;50063;52.084;5.414;2022-07-06T12:56:12;23.90;93.30
63897;DHT22;50063;52.084;5.414;2022-07-06T12:58:39;24.70;93.40
63897;DHT22;50063;52.084;5.414;2022-07-06T13:01:05;24.40;91.50
63897;DHT22;50063;52.084;5.414;2022-07-06T13:03:39;24.10;91.90
63897;DHT22;50063;52.084;5.414;2022-07-06T13:06:06;24.10;92.60
63897;DHT22;50063;52.084;5.414;2022-07-06T13:08:33;23.80;91.70
63897;DHT22;50063;52.084;5.414;2022-07-06T13:10:59;23.80;92.90
63897;DHT22;50063;52.084;5.414;2022-07-06T13:13:26;24.00;92.40
63897;DHT22;50063;52.084;5.414;2022-07-06T13:15:53;24.00;92.80
63897;DHT22;50063;52.084;5.414;2022-07-06T13:18:20;23.90;92.20
63897;DHT22;50063;52.084;5.414;2022-07-06T13:20:46;24.00;92.50
63897;DHT22;50063;52.084;5.414;2022-07-06T13:23:13;23.90;91.90
63897;DHT22;50063;52.084;5.414;2022-07-06T13:25:39;23.70;91.70
63897;DHT22;50063;52.084;5.414;2022-07-06T13:28:06;23.70;91.80
63897;DHT22;50063;52.084;5.414;2022-07-06T13:30:33;23.60;92.40
63897;DHT22;50063;52.084;5.414;2022-07-06T13:32:59;23.80;91.30
63897;DHT22;50063;52.084;5.414;2022-07-06T13:35:26;23.80;91.30
63897;DHT22;50063;52.084;5.414;2022-07-06T13:37:52;23.70;92.20
63897;DHT22;50063;52.084;5.414;2022-07-06T13:40:19;23.80;91.70
63897;DHT22;50063;52.084;5.414;2022-07-06T13:42:45;23.90;92.40
63897;DHT22;50063;52.084;5.414;2022-07-06T13:45:12;24.20;92.00
63897;DHT22;50063;52.084;5.414;2022-07-06T13:47:39;24.40;92.40
63897;DHT22;50063;52.084;5.414;2022-07-06T13:50:05;24.70;92.60
63897;DHT22;50063;52.084;5.414;2022-07-06T13:52:32;24.80;91.40
63897;DHT22;50063;52.084;5.414;2022-07-06T13:54:59;24.70;91.40
63897;DHT22;50063;52.084;5.414;2022-07-06T13:57:28;24.50;91.30
63897;DHT22;50063;52.084;5.414;2022-07-06T13:59:54;24.20;91.40
63897;DHT22;50063;52.084;5.414;2022-07-06T14:02:21;24.20;91.40
63897;DHT22;50063;52.084;5.414;2022-07-06T14:04:48;24.30;91.30
63897;DHT22;50063;52.084;5.414;2022-07-06T14:07:14;23.90;91.10
63897;DHT22;50063;52.084;5.414;2022-07-06T14:09:46;23.90;91.20
63897;DHT22;50063;52.084;5.414;2022-07-06T14:12:18;23.80;91.90
63897;DHT22;50063;52.084;5.414;2022-07-06T14:14:45;24.00;91.60
63897;DHT22;50063;52.084;5.414;2022-07-06T14:17:12;24.00;91.30
63897;DHT22;50063;52.084;5.414;2022-07-06T14:19:39;24.00;91.30
63897;DHT22;50063;52.084;5.414;2022-07-06T14:22:06;23.80;91.30
63897;DHT22;50063;52.084;5.414;2022-07-06T14:24:32;23.70;91.90
63897;DHT22;50063;52.084;5.414;2022-07-06T14:27:01;23.60;91.80
63897;DHT22;50063;52.084;5.414;2022-07-06T14:29:27;23.60;91.40
63897;DHT22;50063;52.084;5.414;2022-07-06T14:31:54;23.50;92.10
63897;DHT22;50063;52.084;5.414;2022-07-06T14:34:21;23.60;92.70
63897;DHT22;50063;52.084;5.414;2022-07-06T14:36:47;23.60;92.10
63897;DHT22;50063;52.084;5.414;2022-07-06T14:39:14;23.40;92.10
63897;DHT22;50063;52.084;5.414;2022-07-06T14:41:41;23.20;91.90
63897;DHT22;50063;52.084;5.414;2022-07-06T14:44:07;23.00;92.00
63897;DHT22;50063;52.084;5.414;2022-07-06T14:46:34;22.80;92.60
63897;DHT22;50063;52.084;5.414;2022-07-06T14:49:01;22.70;92.80
63897;DHT22;50063;52.084;5.414;2022-07-06T14:51:27;22.80;93.20
63897;DHT22;50063;52.084;5.414;2022-07-06T14:53:54;22.90;93.10
63897;DHT22;50063;52.084;5.414;2022-07-06T14:56:20;22.70;92.60
63897;DHT22;50063;52.084;5.414;2022-07-06T14:58:47;22.70;92.90
63897;DHT22;50063;52.084;5.414;2022-07-06T15:01:33;22.60;93.10
63897;DHT22;50063;52.084;5.414;2022-07-06T15:04:00;22.50;93.20
63897;DHT22;50063;52.084;5.414;2022-07-06T15:06:27;22.50;93.30
63897;DHT22;50063;52.084;5.414;2022-07-06T15:09:13;22.50;93.30
63897;DHT22;50063;52.084;5.414;2022-07-06T15:11:40;22.40;93.80
63897;DHT22;50063;52.084;5.414;2022-07-06T15:14:07;22.20;93.50
63897;DHT22;50063;52.084;5.414;2022-07-06T15:16:33;22.20;93.80
63897;DHT22;50063;52.084;5.414;2022-07-06T15:19:00;22.40;93.60
63897;DHT22;50063;52.084;5.414;2022-07-06T15:21:26;22.50;93.30
63897;DHT22;50063;52.084;5.414;2022-07-06T15:23:53;22.50;93.10
63897;DHT22;50063;52.084;5.414;2022-07-06T15:26:20;22.20;93.00
63897;DHT22;50063;52.084;5.414;2022-07-06T15:28:46;22.10;93.00
63897;DHT22;50063;52.084;5.414;2022-07-06T15:31:13;22.10;93.40
63897;DHT22;50063;52.084;5.414;2022-07-06T15:33:47;22.10;93.40
63897;DHT22;50063;52.084;5.414;2022-07-06T15:36:14;22.10;93.50
63897;DHT22;50063;52.084;5.414;2022-07-06T15:38:41;22.00;93.50
63897;DHT22;50063;52.084;5.414;2022-07-06T15:41:07;22.00;93.70
63897;DHT22;50063;52.084;5.414;2022-07-06T15:43:35;21.80;93.70
63897;DHT22;50063;52.084;5.414;2022-07-06T15:46:02;21.90;93.90